Epic Capri — 9HA2845 — position and weather

sailwx.info

Track history (hours):
 
Tides and Currents Weather Stations Pressure Air Temp Water Temp Dewpoint Dewpoint Depression Visibility Wind Speed Wind Dir Waves Ship Positions

Epic Capri

Last reported at 2014-Oct-31 10:20 UTC. Time now 2014-Nov-01 13:08 UTC.
Position N 37°41' W 023°44'.

Length 99 m; draft 4.9 m.

Type: Tanker. MMSI: 256325000.

Date/timePositionNaut miles runAvg speedWind from/ knotsBaromVisibWave heightAir tempDewpointWater temp
2014-Oct-31 10:20N 37°41' W 023°44'7 9.4
2014-Oct-31 09:33N 37°41' W 023°54'10 9.7
2014-Oct-31 08:33N 37°41' W 024°06'10 9.9
2014-Oct-31 07:33N 37°41' W 024°18'10 9.7
2014-Oct-31 06:33N 37°41' W 024°31'10 9.7
2014-Oct-31 05:33N 37°40' W 024°43'1010.5
2014-Oct-31 04:33N 37°40' W 024°56'1010.5
2014-Oct-31 03:33N 37°40' W 025°09'1010.1
2014-Oct-31 02:33N 37°40' W 025°22'9 9.4
2014-Oct-31 01:33N 37°41' W 025°34'6 5.6
2014-Oct-31 00:34N 37°44' W 025°40'0 0.0
2014-Oct-30 23:32N 37°44' W 025°40'0 0.0
2014-Oct-30 22:32N 37°44' W 025°40'0 0.0
2014-Oct-30 21:32N 37°44' W 025°40'0 0.0
2014-Oct-30 20:32N 37°44' W 025°40'0 0.0
2014-Oct-30 19:32N 37°44' W 025°40'0 0.0
2014-Oct-30 18:32N 37°44' W 025°40'0 0.0
2014-Oct-30 17:32N 37°44' W 025°40'0 0.0
2014-Oct-30 16:32N 37°44' W 025°40'0 0.0
2014-Oct-30 15:32N 37°44' W 025°40'0 0.0
2014-Oct-30 14:33N 37°44' W 025°40'0 0.0
2014-Oct-30 13:32N 37°44' W 025°40'0 0.0
2014-Oct-30 12:32N 37°44' W 025°40'0 0.0
2014-Oct-30 11:32N 37°44' W 025°40'0 0.0
2014-Oct-30 10:32N 37°44' W 025°40'0 0.0
2014-Oct-30 09:29N 37°44' W 025°40'0 0.0
2014-Oct-30 08:32N 37°44' W 025°40'0 0.0
2014-Oct-30 07:32N 37°44' W 025°40'1 1.3
2014-Oct-30 06:33N 37°43' W 025°41'9 9.2
2014-Oct-30 05:34N 37°47' W 025°52'1010.3
2014-Oct-30 04:33N 37°55' W 026°00'1110.5
2014-Oct-30 03:33N 38°02' W 026°10'10 9.9
2014-Oct-30 02:33N 38°09' W 026°18'10 9.6
2014-Oct-30 01:33N 38°16' W 026°27'10 9.7
2014-Oct-30 00:33N 38°23' W 026°36'10 9.9
2014-Oct-29 23:33N 38°30' W 026°45'1110.2
2014-Oct-29 22:30N 38°38' W 026°54'9 0.8
2014-Oct-29 11:28N 38°43' W 027°03'4 3.1
2014-Oct-29 10:14N 38°40' W 027°00'6 8.0
2014-Oct-29 09:32N 38°35' W 027°04'1110.7
2014-Oct-29 08:33N 38°33' W 027°17'1010.3
2014-Oct-29 07:34N 38°30' W 027°30'1010.0
2014-Oct-29 06:33N 38°28' W 027°42'1010.2
2014-Oct-29 05:33N 38°30' W 027°55'10 9.8
2014-Oct-29 04:33N 38°33' W 028°07'1010.2
2014-Oct-29 03:33N 38°35' W 028°20'10 9.9
2014-Oct-29 02:33N 38°34' W 028°33'4 3.9
2014-Oct-29 01:29N 38°32' W 028°37'0 0.0
2014-Oct-29 00:32N 38°32' W 028°37'0 0.0
2014-Oct-28 23:32N 38°32' W 028°37'0 0.0
2014-Oct-28 22:32N 38°32' W 028°37'0 0.0
2014-Oct-28 21:32N 38°32' W 028°37'0 0.0
2014-Oct-28 20:31N 38°32' W 028°37'0 0.0
2014-Oct-28 19:32N 38°32' W 028°37'0 0.1
2014-Oct-28 18:33N 38°32' W 028°37'1 1.1
2014-Oct-28 17:33N 38°32' W 028°36'1 1.4
2014-Oct-28 16:33N 38°33' W 028°34'8 8.4
2014-Oct-28 15:33N 38°36' W 028°24'9 9.1
2014-Oct-28 14:33N 38°33' W 028°13'1010.0
2014-Oct-28 13:33N 38°31' W 028°01'10 9.7
2014-Oct-28 12:33N 38°28' W 027°49'9 9.2
2014-Oct-28 11:34N 38°25' W 027°37'9 8.7
2014-Oct-28 10:33N 38°23' W 027°27'9 8.9
2014-Oct-28 09:34N 38°21' W 027°16'9 9.3
2014-Oct-28 08:33N 38°19' W 027°04'9 9.1
2014-Oct-28 07:33N 38°18' W 026°53'11 9.1
2014-Oct-28 06:22N 38°18' W 026°39'16 8.8
2014-Oct-28 04:33N 38°17' W 026°18'9 8.8
2014-Oct-28 03:33N 38°17' W 026°07'9 9.0
2014-Oct-28 02:33N 38°17' W 025°56'9 8.9
2014-Oct-28 01:33N 38°16' W 025°44'9 8.7
2014-Oct-28 00:33N 38°16' W 025°33'9 9.5
2014-Oct-27 23:33N 38°16' W 025°21'9 9.3
2014-Oct-27 22:33N 38°16' W 025°09'9 8.8
2014-Oct-27 21:33N 38°15' W 024°58'9 9.2
2014-Oct-27 20:33N 38°15' W 024°47'9 9.3
2014-Oct-27 19:33N 38°15' W 024°35'9 9.4
2014-Oct-27 18:33N 38°15' W 024°23'9 9.5
2014-Oct-27 17:34N 38°14' W 024°11'9 9.0
2014-Oct-27 16:33N 38°14' W 023°59'  
2014-Oct-25 07:15N 37°59' W 012°28'7 9.3
2014-Oct-25 06:33N 37°59' W 012°19'10 9.4
2014-Oct-25 05:32N 37°59' W 012°07'108 9.9
2014-Oct-24 18:33N 37°55' W 009°50'1110.0
2014-Oct-24 17:28N 37°54' W 009°36'910.1
2014-Oct-24 16:32N 37°55' W 009°24'9 9.5
2014-Oct-24 15:33N 37°57' W 009°12'8 7.5
2014-Oct-24 14:33N 37°55' W 009°03'8 8.0
2014-Oct-24 13:33N 37°57' W 008°53'0 0.3
2014-Oct-24 12:33N 37°57' W 008°53'0 0.0
2014-Oct-24 11:33N 37°57' W 008°53'0 0.0
2014-Oct-24 10:33N 37°57' W 008°53'0 0.0
2014-Oct-24 09:33N 37°57' W 008°53'0 0.0
2014-Oct-24 08:30N 37°57' W 008°53'0 0.0
2014-Oct-24 07:33N 37°57' W 008°53'0 0.0
2014-Oct-24 06:33N 37°57' W 008°53'0 0.0
2014-Oct-24 05:33N 37°57' W 008°53'0 0.0
2014-Oct-24 04:33N 37°57' W 008°53'0 0.0
2014-Oct-24 03:33N 37°57' W 008°53'0 0.0
2014-Oct-24 02:33N 37°57' W 008°53'0 0.0
2014-Oct-24 01:33N 37°57' W 008°53'0 0.0
2014-Oct-24 00:33N 37°57' W 008°53'0 0.0
2014-Oct-23 23:33N 37°57' W 008°53'0 0.0
2014-Oct-23 22:33N 37°57' W 008°53'0 0.0
2014-Oct-23 21:33N 37°57' W 008°53'0 0.0
2014-Oct-23 20:33N 37°57' W 008°53'0 0.0
2014-Oct-23 19:33N 37°57' W 008°53'0 0.0
2014-Oct-23 18:33N 37°57' W 008°53'0 0.0
2014-Oct-23 17:33N 37°57' W 008°53'0 0.0
2014-Oct-23 16:33N 37°57' W 008°53'0 0.0
2014-Oct-23 15:33N 37°57' W 008°53'1 1.2
2014-Oct-23 14:33N 37°56' W 008°53'4 3.6
2014-Oct-23 13:33N 37°58' W 008°57'1010.4
2014-Oct-23 12:33N 38°03' W 009°08'1010.0
2014-Oct-23 11:33N 38°06' W 009°20'1010.0
2014-Oct-23 10:33N 38°10' W 009°32'10 9.8
2014-Oct-23 09:33N 38°13' W 009°44'10 9.7
2014-Oct-23 08:33N 38°17' W 009°55'10 9.8
2014-Oct-23 07:33N 38°22' W 010°06'1010.2
2014-Oct-23 06:33N 38°32' W 010°09'1010.3
2014-Oct-23 05:33N 38°42' W 010°12'1110.5
2014-Oct-23 04:33N 38°52' W 010°12'1110.7
2014-Oct-23 03:33N 39°03' W 010°10'1010.1
2014-Oct-23 02:33N 39°12' W 010°04'2310.1
2014-Oct-23 00:14N 39°33' W 009°50'  
Track history (hours):
 
Tides and Currents Weather Stations Pressure Air Temp Water Temp Dewpoint Dewpoint Depression Visibility Wind Speed Wind Dir Waves Ship Positions

Epic Capri

Last reported at 2014-Oct-31 10:20 UTC. Time now 2014-Nov-01 13:08 UTC.
Position N 37°41' W 023°44'.

Length 99 m; draft 4.9 m.

Type: Tanker. MMSI: 256325000.

Date/timePositionNaut miles runAvg speedWind from/ knotsBaromVisibWave heightAir tempDewpointWater temp
2014-Oct-31 10:20N 37°41' W 023°44'7 9.4
2014-Oct-31 09:33N 37°41' W 023°54'10 9.7
2014-Oct-31 08:33N 37°41' W 024°06'10 9.9
2014-Oct-31 07:33N 37°41' W 024°18'10 9.7
2014-Oct-31 06:33N 37°41' W 024°31'10 9.7
2014-Oct-31 05:33N 37°40' W 024°43'1010.5
2014-Oct-31 04:33N 37°40' W 024°56'1010.5
2014-Oct-31 03:33N 37°40' W 025°09'1010.1
2014-Oct-31 02:33N 37°40' W 025°22'9 9.4
2014-Oct-31 01:33N 37°41' W 025°34'6 5.6
2014-Oct-31 00:34N 37°44' W 025°40'0 0.0
2014-Oct-30 23:32N 37°44' W 025°40'0 0.0
2014-Oct-30 22:32N 37°44' W 025°40'0 0.0
2014-Oct-30 21:32N 37°44' W 025°40'0 0.0
2014-Oct-30 20:32N 37°44' W 025°40'0 0.0
2014-Oct-30 19:32N 37°44' W 025°40'0 0.0
2014-Oct-30 18:32N 37°44' W 025°40'0 0.0
2014-Oct-30 17:32N 37°44' W 025°40'0 0.0
2014-Oct-30 16:32N 37°44' W 025°40'0 0.0
2014-Oct-30 15:32N 37°44' W 025°40'0 0.0
2014-Oct-30 14:33N 37°44' W 025°40'0 0.0
2014-Oct-30 13:32N 37°44' W 025°40'0 0.0
2014-Oct-30 12:32N 37°44' W 025°40'0 0.0
2014-Oct-30 11:32N 37°44' W 025°40'0 0.0
2014-Oct-30 10:32N 37°44' W 025°40'0 0.0
2014-Oct-30 09:29N 37°44' W 025°40'0 0.0
2014-Oct-30 08:32N 37°44' W 025°40'0 0.0
2014-Oct-30 07:32N 37°44' W 025°40'1 1.3
2014-Oct-30 06:33N 37°43' W 025°41'9 9.2
2014-Oct-30 05:34N 37°47' W 025°52'1010.3
2014-Oct-30 04:33N 37°55' W 026°00'1110.5
2014-Oct-30 03:33N 38°02' W 026°10'10 9.9
2014-Oct-30 02:33N 38°09' W 026°18'10 9.6
2014-Oct-30 01:33N 38°16' W 026°27'10 9.7
2014-Oct-30 00:33N 38°23' W 026°36'10 9.9
2014-Oct-29 23:33N 38°30' W 026°45'1110.2
2014-Oct-29 22:30N 38°38' W 026°54'9 0.8
2014-Oct-29 11:28N 38°43' W 027°03'4 3.1
2014-Oct-29 10:14N 38°40' W 027°00'6 8.0
2014-Oct-29 09:32N 38°35' W 027°04'1110.7
2014-Oct-29 08:33N 38°33' W 027°17'1010.3
2014-Oct-29 07:34N 38°30' W 027°30'1010.0
2014-Oct-29 06:33N 38°28' W 027°42'1010.2
2014-Oct-29 05:33N 38°30' W 027°55'10 9.8
2014-Oct-29 04:33N 38°33' W 028°07'1010.2
2014-Oct-29 03:33N 38°35' W 028°20'10 9.9
2014-Oct-29 02:33N 38°34' W 028°33'4 3.9
2014-Oct-29 01:29N 38°32' W 028°37'0 0.0
2014-Oct-29 00:32N 38°32' W 028°37'0 0.0
2014-Oct-28 23:32N 38°32' W 028°37'0 0.0
2014-Oct-28 22:32N 38°32' W 028°37'0 0.0
2014-Oct-28 21:32N 38°32' W 028°37'0 0.0
2014-Oct-28 20:31N 38°32' W 028°37'0 0.0
2014-Oct-28 19:32N 38°32' W 028°37'0 0.1
2014-Oct-28 18:33N 38°32' W 028°37'1 1.1
2014-Oct-28 17:33N 38°32' W 028°36'1 1.4
2014-Oct-28 16:33N 38°33' W 028°34'8 8.4
2014-Oct-28 15:33N 38°36' W 028°24'9 9.1
2014-Oct-28 14:33N 38°33' W 028°13'1010.0
2014-Oct-28 13:33N 38°31' W 028°01'10 9.7
2014-Oct-28 12:33N 38°28' W 027°49'9 9.2
2014-Oct-28 11:34N 38°25' W 027°37'9 8.7
2014-Oct-28 10:33N 38°23' W 027°27'9 8.9
2014-Oct-28 09:34N 38°21' W 027°16'9 9.3
2014-Oct-28 08:33N 38°19' W 027°04'9 9.1
2014-Oct-28 07:33N 38°18' W 026°53'11 9.1
2014-Oct-28 06:22N 38°18' W 026°39'16 8.8
2014-Oct-28 04:33N 38°17' W 026°18'9 8.8
2014-Oct-28 03:33N 38°17' W 026°07'9 9.0
2014-Oct-28 02:33N 38°17' W 025°56'9 8.9
2014-Oct-28 01:33N 38°16' W 025°44'9 8.7
2014-Oct-28 00:33N 38°16' W 025°33'9 9.5
2014-Oct-27 23:33N 38°16' W 025°21'9 9.3
2014-Oct-27 22:33N 38°16' W 025°09'9 8.8
2014-Oct-27 21:33N 38°15' W 024°58'9 9.2
2014-Oct-27 20:33N 38°15' W 024°47'9 9.3
2014-Oct-27 19:33N 38°15' W 024°35'9 9.4
2014-Oct-27 18:33N 38°15' W 024°23'9 9.5
2014-Oct-27 17:34N 38°14' W 024°11'9 9.0
2014-Oct-27 16:33N 38°14' W 023°59'  
2014-Oct-25 07:15N 37°59' W 012°28'7 9.3
2014-Oct-25 06:33N 37°59' W 012°19'10 9.4
2014-Oct-25 05:32N 37°59' W 012°07'108 9.9
2014-Oct-24 18:33N 37°55' W 009°50'1110.0
2014-Oct-24 17:28N 37°54' W 009°36'910.1
2014-Oct-24 16:32N 37°55' W 009°24'9 9.5
2014-Oct-24 15:33N 37°57' W 009°12'8 7.5
2014-Oct-24 14:33N 37°55' W 009°03'8 8.0
2014-Oct-24 13:33N 37°57' W 008°53'0 0.3
2014-Oct-24 12:33N 37°57' W 008°53'0 0.0
2014-Oct-24 11:33N 37°57' W 008°53'0 0.0
2014-Oct-24 10:33N 37°57' W 008°53'0 0.0
2014-Oct-24 09:33N 37°57' W 008°53'0 0.0
2014-Oct-24 08:30N 37°57' W 008°53'0 0.0
2014-Oct-24 07:33N 37°57' W 008°53'0 0.0
2014-Oct-24 06:33N 37°57' W 008°53'0 0.0
2014-Oct-24 05:33N 37°57' W 008°53'0 0.0
2014-Oct-24 04:33N 37°57' W 008°53'0 0.0
2014-Oct-24 03:33N 37°57' W 008°53'0 0.0
2014-Oct-24 02:33N 37°57' W 008°53'0 0.0
2014-Oct-24 01:33N 37°57' W 008°53'0 0.0
2014-Oct-24 00:33N 37°57' W 008°53'0 0.0
2014-Oct-23 23:33N 37°57' W 008°53'0 0.0
2014-Oct-23 22:33N 37°57' W 008°53'0 0.0
2014-Oct-23 21:33N 37°57' W 008°53'0 0.0
2014-Oct-23 20:33N 37°57' W 008°53'0 0.0
2014-Oct-23 19:33N 37°57' W 008°53'0 0.0
2014-Oct-23 18:33N 37°57' W 008°53'0 0.0
2014-Oct-23 17:33N 37°57' W 008°53'0 0.0
2014-Oct-23 16:33N 37°57' W 008°53'0 0.0
2014-Oct-23 15:33N 37°57' W 008°53'1 1.2
2014-Oct-23 14:33N 37°56' W 008°53'4 3.6
2014-Oct-23 13:33N 37°58' W 008°57'1010.4
2014-Oct-23 12:33N 38°03' W 009°08'1010.0
2014-Oct-23 11:33N 38°06' W 009°20'1010.0
2014-Oct-23 10:33N 38°10' W 009°32'10 9.8
2014-Oct-23 09:33N 38°13' W 009°44'10 9.7
2014-Oct-23 08:33N 38°17' W 009°55'10 9.8
2014-Oct-23 07:33N 38°22' W 010°06'1010.2
2014-Oct-23 06:33N 38°32' W 010°09'1010.3
2014-Oct-23 05:33N 38°42' W 010°12'1110.5
2014-Oct-23 04:33N 38°52' W 010°12'1110.7
2014-Oct-23 03:33N 39°03' W 010°10'1010.1
2014-Oct-23 02:33N 39°12' W 010°04'2310.1
2014-Oct-23 00:14N 39°33' W 009°50'  

Dump ship's entire track history